sensor_id;sensor_type;location;lat;lon;timestamp;P1;durP1;ratioP1;P2;durP2;ratioP2
19301;SDS011;9785;59.362;12.152;2023-02-28T00:00:39;1.50;;;1.40;;
19301;SDS011;9785;59.362;12.152;2023-02-28T00:03:10;1.33;;;1.23;;
19301;SDS011;9785;59.362;12.152;2023-02-28T00:05:39;2.17;;;1.40;;
19301;SDS011;9785;59.362;12.152;2023-02-28T00:08:09;3.33;;;1.50;;
19301;SDS011;9785;59.362;12.152;2023-02-28T00:10:40;1.73;;;1.63;;
19301;SDS011;9785;59.362;12.152;2023-02-28T00:13:09;1.90;;;1.70;;
19301;SDS011;9785;59.362;12.152;2023-02-28T00:15:40;1.50;;;1.40;;
19301;SDS011;9785;59.362;12.152;2023-02-28T00:18:15;2.17;;;1.60;;
19301;SDS011;9785;59.362;12.152;2023-02-28T00:20:45;4.90;;;1.47;;
19301;SDS011;9785;59.362;12.152;2023-02-28T00:23:16;4.57;;;1.30;;
19301;SDS011;9785;59.362;12.152;2023-02-28T00:25:46;1.00;;;1.00;;
19301;SDS011;9785;59.362;12.152;2023-02-28T00:28:17;1.23;;;1.23;;
19301;SDS011;9785;59.362;12.152;2023-02-28T00:30:50;1.23;;;1.13;;
19301;SDS011;9785;59.362;12.152;2023-02-28T00:33:21;2.27;;;1.40;;
19301;SDS011;9785;59.362;12.152;2023-02-28T00:35:51;1.50;;;1.40;;
19301;SDS011;9785;59.362;12.152;2023-02-28T00:38:23;1.30;;;1.30;;
19301;SDS011;9785;59.362;12.152;2023-02-28T00:40:54;1.40;;;1.30;;
19301;SDS011;9785;59.362;12.152;2023-02-28T00:43:23;1.27;;;1.17;;
19301;SDS011;9785;59.362;12.152;2023-02-28T00:45:54;1.40;;;1.30;;
19301;SDS011;9785;59.362;12.152;2023-02-28T00:48:26;1.90;;;1.37;;
19301;SDS011;9785;59.362;12.152;2023-02-28T00:50:58;1.07;;;1.03;;
19301;SDS011;9785;59.362;12.152;2023-02-28T00:53:29;1.07;;;1.00;;
19301;SDS011;9785;59.362;12.152;2023-02-28T00:55:59;0.97;;;0.97;;
19301;SDS011;9785;59.362;12.152;2023-02-28T00:58:29;2.97;;;1.20;;
19301;SDS011;9785;59.362;12.152;2023-02-28T01:01:00;2.60;;;1.10;;
19301;SDS011;9785;59.362;12.152;2023-02-28T01:03:29;1.30;;;1.20;;
19301;SDS011;9785;59.362;12.152;2023-02-28T01:06:00;2.50;;;1.20;;
19301;SDS011;9785;59.362;12.152;2023-02-28T01:08:37;1.43;;;1.00;;
19301;SDS011;9785;59.362;12.152;2023-02-28T01:11:07;1.00;;;1.00;;
19301;SDS011;9785;59.362;12.152;2023-02-28T01:13:38;1.27;;;1.20;;
19301;SDS011;9785;59.362;12.152;2023-02-28T01:16:12;1.23;;;1.20;;
19301;SDS011;9785;59.362;12.152;2023-02-28T01:18:42;1.20;;;1.10;;
19301;SDS011;9785;59.362;12.152;2023-02-28T01:21:16;1.13;;;1.00;;
19301;SDS011;9785;59.362;12.152;2023-02-28T01:23:47;0.80;;;0.80;;
19301;SDS011;9785;59.362;12.152;2023-02-28T01:26:19;0.70;;;0.70;;
19301;SDS011;9785;59.362;12.152;2023-02-28T01:28:51;1.20;;;1.03;;
19301;SDS011;9785;59.362;12.152;2023-02-28T01:31:23;0.90;;;0.90;;
19301;SDS011;9785;59.362;12.152;2023-02-28T01:33:53;0.73;;;0.73;;
19301;SDS011;9785;59.362;12.152;2023-02-28T01:36:23;0.70;;;0.70;;
19301;SDS011;9785;59.362;12.152;2023-02-28T01:38:53;2.53;;;1.00;;
19301;SDS011;9785;59.362;12.152;2023-02-28T01:41:26;1.17;;;1.03;;
19301;SDS011;9785;59.362;12.152;2023-02-28T01:43:59;0.70;;;0.70;;
19301;SDS011;9785;59.362;12.152;2023-02-28T01:46:32;0.80;;;0.80;;
19301;SDS011;9785;59.362;12.152;2023-02-28T01:49:07;0.93;;;0.90;;
19301;SDS011;9785;59.362;12.152;2023-02-28T01:51:39;0.97;;;0.90;;
19301;SDS011;9785;59.362;12.152;2023-02-28T01:54:16;0.80;;;0.80;;
19301;SDS011;9785;59.362;12.152;2023-02-28T01:56:49;0.80;;;0.80;;
19301;SDS011;9785;59.362;12.152;2023-02-28T01:59:20;1.20;;;0.90;;
19301;SDS011;9785;59.362;12.152;2023-02-28T02:01:52;0.90;;;0.90;;
19301;SDS011;9785;59.362;12.152;2023-02-28T02:04:22;1.00;;;0.90;;
19301;SDS011;9785;59.362;12.152;2023-02-28T02:06:53;0.80;;;0.80;;
19301;SDS011;9785;59.362;12.152;2023-02-28T02:09:23;0.93;;;0.93;;
19301;SDS011;9785;59.362;12.152;2023-02-28T02:11:52;0.80;;;0.80;;
19301;SDS011;9785;59.362;12.152;2023-02-28T02:14:32;3.07;;;0.90;;
19301;SDS011;9785;59.362;12.152;2023-02-28T02:17:10;1.77;;;0.97;;
19301;SDS011;9785;59.362;12.152;2023-02-28T02:19:47;1.63;;;0.83;;
19301;SDS011;9785;59.362;12.152;2023-02-28T02:22:25;0.80;;;0.80;;
19301;SDS011;9785;59.362;12.152;2023-02-28T02:25:06;0.80;;;0.80;;
19301;SDS011;9785;59.362;12.152;2023-02-28T02:27:46;3.03;;;0.83;;
19301;SDS011;9785;59.362;12.152;2023-02-28T02:33:20;0.73;;;0.73;;
19301;SDS011;9785;59.362;12.152;2023-02-28T02:36:02;0.80;;;0.80;;
19301;SDS011;9785;59.362;12.152;2023-02-28T02:38:38;2.77;;;0.90;;
19301;SDS011;9785;59.362;12.152;2023-02-28T02:41:14;2.77;;;0.80;;
19301;SDS011;9785;59.362;12.152;2023-02-28T02:43:46;1.00;;;0.80;;
19301;SDS011;9785;59.362;12.152;2023-02-28T02:46:18;1.93;;;0.80;;
19301;SDS011;9785;59.362;12.152;2023-02-28T02:48:49;1.03;;;0.80;;
19301;SDS011;9785;59.362;12.152;2023-02-28T02:51:23;0.70;;;0.70;;
19301;SDS011;9785;59.362;12.152;2023-02-28T02:53:55;0.80;;;0.80;;
19301;SDS011;9785;59.362;12.152;2023-02-28T02:56:28;1.57;;;0.90;;
19301;SDS011;9785;59.362;12.152;2023-02-28T02:59:00;1.07;;;0.60;;
19301;SDS011;9785;59.362;12.152;2023-02-28T03:01:31;2.30;;;1.00;;
19301;SDS011;9785;59.362;12.152;2023-02-28T03:04:04;0.70;;;0.70;;
19301;SDS011;9785;59.362;12.152;2023-02-28T03:06:37;0.80;;;0.77;;
19301;SDS011;9785;59.362;12.152;2023-02-28T03:09:09;0.93;;;0.93;;
19301;SDS011;9785;59.362;12.152;2023-02-28T03:11:46;0.90;;;0.90;;
19301;SDS011;9785;59.362;12.152;2023-02-28T03:14:19;1.00;;;0.90;;
19301;SDS011;9785;59.362;12.152;2023-02-28T03:16:58;0.80;;;0.80;;
19301;SDS011;9785;59.362;12.152;2023-02-28T03:22:22;0.73;;;0.73;;
19301;SDS011;9785;59.362;12.152;2023-02-28T03:24:54;0.90;;;0.90;;
19301;SDS011;9785;59.362;12.152;2023-02-28T03:27:28;2.20;;;0.80;;
19301;SDS011;9785;59.362;12.152;2023-02-28T03:30:00;0.80;;;0.80;;
19301;SDS011;9785;59.362;12.152;2023-02-28T03:32:32;0.67;;;0.67;;
19301;SDS011;9785;59.362;12.152;2023-02-28T03:35:05;1.00;;;0.90;;
19301;SDS011;9785;59.362;12.152;2023-02-28T03:37:39;0.93;;;0.60;;
19301;SDS011;9785;59.362;12.152;2023-02-28T03:40:12;0.70;;;0.70;;
19301;SDS011;9785;59.362;12.152;2023-02-28T03:42:43;1.50;;;1.00;;
19301;SDS011;9785;59.362;12.152;2023-02-28T03:45:16;2.10;;;1.10;;
19301;SDS011;9785;59.362;12.152;2023-02-28T03:47:51;0.83;;;0.83;;
19301;SDS011;9785;59.362;12.152;2023-02-28T03:50:23;1.37;;;1.20;;
19301;SDS011;9785;59.362;12.152;2023-02-28T03:52:58;1.00;;;1.00;;
19301;SDS011;9785;59.362;12.152;2023-02-28T03:55:33;2.33;;;1.03;;
19301;SDS011;9785;59.362;12.152;2023-02-28T03:58:07;0.90;;;0.90;;
19301;SDS011;9785;59.362;12.152;2023-02-28T04:00:40;1.03;;;1.03;;
19301;SDS011;9785;59.362;12.152;2023-02-28T04:03:16;1.70;;;1.07;;
19301;SDS011;9785;59.362;12.152;2023-02-28T04:05:46;1.10;;;1.10;;
19301;SDS011;9785;59.362;12.152;2023-02-28T04:08:22;2.20;;;1.00;;
19301;SDS011;9785;59.362;12.152;2023-02-28T04:10:55;0.80;;;0.80;;
19301;SDS011;9785;59.362;12.152;2023-02-28T04:13:34;2.37;;;1.20;;
19301;SDS011;9785;59.362;12.152;2023-02-28T04:16:06;0.83;;;0.83;;
19301;SDS011;9785;59.362;12.152;2023-02-28T04:18:59;1.10;;;1.07;;
19301;SDS011;9785;59.362;12.152;2023-02-28T04:21:30;0.93;;;0.90;;
19301;SDS011;9785;59.362;12.152;2023-02-28T04:24:04;2.50;;;1.03;;
19301;SDS011;9785;59.362;12.152;2023-02-28T04:26:34;1.13;;;1.03;;
19301;SDS011;9785;59.362;12.152;2023-02-28T04:29:06;2.00;;;1.00;;
19301;SDS011;9785;59.362;12.152;2023-02-28T04:31:37;1.10;;;0.87;;
19301;SDS011;9785;59.362;12.152;2023-02-28T04:34:18;1.10;;;1.00;;
19301;SDS011;9785;59.362;12.152;2023-02-28T04:36:49;1.00;;;0.90;;
19301;SDS011;9785;59.362;12.152;2023-02-28T04:39:40;1.00;;;1.00;;
19301;SDS011;9785;59.362;12.152;2023-02-28T04:42:11;2.33;;;1.07;;
19301;SDS011;9785;59.362;12.152;2023-02-28T04:44:42;1.27;;;0.93;;
19301;SDS011;9785;59.362;12.152;2023-02-28T04:47:14;2.63;;;1.13;;
19301;SDS011;9785;59.362;12.152;2023-02-28T04:49:44;1.07;;;0.97;;
19301;SDS011;9785;59.362;12.152;2023-02-28T04:52:14;0.80;;;0.80;;
19301;SDS011;9785;59.362;12.152;2023-02-28T04:54:50;1.23;;;0.90;;
19301;SDS011;9785;59.362;12.152;2023-02-28T04:57:19;2.00;;;1.00;;
19301;SDS011;9785;59.362;12.152;2023-02-28T04:59:49;1.00;;;0.97;;
19301;SDS011;9785;59.362;12.152;2023-02-28T05:02:19;2.00;;;0.90;;
19301;SDS011;9785;59.362;12.152;2023-02-28T05:04:51;1.10;;;1.10;;
19301;SDS011;9785;59.362;12.152;2023-02-28T05:07:21;0.70;;;0.70;;
19301;SDS011;9785;59.362;12.152;2023-02-28T05:09:52;1.00;;;0.90;;
19301;SDS011;9785;59.362;12.152;2023-02-28T05:12:21;0.97;;;0.97;;
19301;SDS011;9785;59.362;12.152;2023-02-28T05:14:52;1.00;;;1.00;;
19301;SDS011;9785;59.362;12.152;2023-02-28T05:17:21;0.83;;;0.83;;
19301;SDS011;9785;59.362;12.152;2023-02-28T05:19:51;2.00;;;0.93;;
19301;SDS011;9785;59.362;12.152;2023-02-28T05:22:35;1.23;;;1.10;;
19301;SDS011;9785;59.362;12.152;2023-02-28T05:25:08;0.80;;;0.80;;
19301;SDS011;9785;59.362;12.152;2023-02-28T05:27:42;2.07;;;1.20;;
19301;SDS011;9785;59.362;12.152;2023-02-28T05:30:13;1.17;;;0.77;;
19301;SDS011;9785;59.362;12.152;2023-02-28T05:32:43;1.13;;;1.00;;
19301;SDS011;9785;59.362;12.152;2023-02-28T05:35:14;0.80;;;0.80;;
19301;SDS011;9785;59.362;12.152;2023-02-28T05:37:46;1.10;;;0.73;;
19301;SDS011;9785;59.362;12.152;2023-02-28T05:40:18;0.97;;;0.90;;
19301;SDS011;9785;59.362;12.152;2023-02-28T05:42:48;0.80;;;0.80;;
19301;SDS011;9785;59.362;12.152;2023-02-28T05:45:19;1.90;;;0.80;;
19301;SDS011;9785;59.362;12.152;2023-02-28T05:47:48;0.90;;;0.83;;
19301;SDS011;9785;59.362;12.152;2023-02-28T05:50:19;1.90;;;0.70;;
19301;SDS011;9785;59.362;12.152;2023-02-28T05:52:49;1.40;;;0.83;;
19301;SDS011;9785;59.362;12.152;2023-02-28T05:55:20;0.73;;;0.73;;
19301;SDS011;9785;59.362;12.152;2023-02-28T05:57:50;1.00;;;1.00;;
19301;SDS011;9785;59.362;12.152;2023-02-28T06:00:20;1.90;;;0.90;;
19301;SDS011;9785;59.362;12.152;2023-02-28T06:02:49;3.60;;;1.03;;
19301;SDS011;9785;59.362;12.152;2023-02-28T06:05:23;2.50;;;0.83;;
19301;SDS011;9785;59.362;12.152;2023-02-28T06:07:53;1.50;;;1.03;;
19301;SDS011;9785;59.362;12.152;2023-02-28T06:10:25;0.80;;;0.80;;
19301;SDS011;9785;59.362;12.152;2023-02-28T06:12:55;1.00;;;0.90;;
19301;SDS011;9785;59.362;12.152;2023-02-28T06:15:24;3.03;;;1.10;;
19301;SDS011;9785;59.362;12.152;2023-02-28T06:17:54;1.27;;;0.80;;
19301;SDS011;9785;59.362;12.152;2023-02-28T06:20:26;0.80;;;0.70;;
19301;SDS011;9785;59.362;12.152;2023-02-28T06:22:57;0.90;;;0.90;;
19301;SDS011;9785;59.362;12.152;2023-02-28T06:25:28;1.27;;;1.17;;
19301;SDS011;9785;59.362;12.152;2023-02-28T06:27:59;0.97;;;0.97;;
19301;SDS011;9785;59.362;12.152;2023-02-28T06:30:29;0.83;;;0.63;;
19301;SDS011;9785;59.362;12.152;2023-02-28T06:33:01;0.83;;;0.83;;
19301;SDS011;9785;59.362;12.152;2023-02-28T06:35:32;0.70;;;0.70;;
19301;SDS011;9785;59.362;12.152;2023-02-28T06:38:03;0.80;;;0.80;;
19301;SDS011;9785;59.362;12.152;2023-02-28T06:40:36;0.70;;;0.70;;
19301;SDS011;9785;59.362;12.152;2023-02-28T06:43:06;1.00;;;0.80;;
19301;SDS011;9785;59.362;12.152;2023-02-28T06:45:36;0.87;;;0.80;;
19301;SDS011;9785;59.362;12.152;2023-02-28T06:48:06;1.00;;;0.90;;
19301;SDS011;9785;59.362;12.152;2023-02-28T06:50:37;0.60;;;0.60;;
19301;SDS011;9785;59.362;12.152;2023-02-28T06:53:07;0.70;;;0.70;;
19301;SDS011;9785;59.362;12.152;2023-02-28T06:55:41;1.27;;;0.90;;
19301;SDS011;9785;59.362;12.152;2023-02-28T06:58:10;0.57;;;0.57;;
19301;SDS011;9785;59.362;12.152;2023-02-28T07:00:43;1.20;;;0.80;;
19301;SDS011;9785;59.362;12.152;2023-02-28T07:03:16;0.77;;;0.70;;
19301;SDS011;9785;59.362;12.152;2023-02-28T07:05:47;2.10;;;0.80;;
19301;SDS011;9785;59.362;12.152;2023-02-28T07:08:20;1.73;;;0.70;;
19301;SDS011;9785;59.362;12.152;2023-02-28T07:10:53;0.47;;;0.47;;
19301;SDS011;9785;59.362;12.152;2023-02-28T07:13:23;1.13;;;0.93;;
19301;SDS011;9785;59.362;12.152;2023-02-28T07:15:53;1.40;;;0.70;;
19301;SDS011;9785;59.362;12.152;2023-02-28T07:18:23;2.57;;;0.63;;
19301;SDS011;9785;59.362;12.152;2023-02-28T07:20:53;0.70;;;0.70;;
19301;SDS011;9785;59.362;12.152;2023-02-28T07:23:24;0.60;;;0.60;;
19301;SDS011;9785;59.362;12.152;2023-02-28T07:25:55;0.70;;;0.70;;
19301;SDS011;9785;59.362;12.152;2023-02-28T07:28:25;0.73;;;0.73;;
19301;SDS011;9785;59.362;12.152;2023-02-28T07:30:55;0.80;;;0.80;;
19301;SDS011;9785;59.362;12.152;2023-02-28T07:33:25;1.43;;;0.80;;
19301;SDS011;9785;59.362;12.152;2023-02-28T07:35:59;0.67;;;0.67;;
19301;SDS011;9785;59.362;12.152;2023-02-28T07:38:33;1.00;;;0.90;;
19301;SDS011;9785;59.362;12.152;2023-02-28T07:41:05;0.93;;;0.80;;
19301;SDS011;9785;59.362;12.152;2023-02-28T07:43:36;1.97;;;1.07;;
19301;SDS011;9785;59.362;12.152;2023-02-28T07:46:06;2.23;;;1.00;;
19301;SDS011;9785;59.362;12.152;2023-02-28T07:48:37;1.10;;;1.10;;
19301;SDS011;9785;59.362;12.152;2023-02-28T07:51:07;0.80;;;0.80;;
19301;SDS011;9785;59.362;12.152;2023-02-28T07:53:36;1.23;;;1.00;;
19301;SDS011;9785;59.362;12.152;2023-02-28T07:56:08;1.73;;;0.90;;
19301;SDS011;9785;59.362;12.152;2023-02-28T07:58:39;0.70;;;0.70;;
19301;SDS011;9785;59.362;12.152;2023-02-28T08:01:09;1.53;;;1.30;;
19301;SDS011;9785;59.362;12.152;2023-02-28T08:03:41;1.43;;;1.00;;
19301;SDS011;9785;59.362;12.152;2023-02-28T08:06:15;1.20;;;1.10;;
19301;SDS011;9785;59.362;12.152;2023-02-28T08:08:45;0.80;;;0.80;;
19301;SDS011;9785;59.362;12.152;2023-02-28T08:11:17;1.20;;;0.60;;
19301;SDS011;9785;59.362;12.152;2023-02-28T08:13:47;0.73;;;0.73;;
19301;SDS011;9785;59.362;12.152;2023-02-28T08:16:19;0.93;;;0.83;;
19301;SDS011;9785;59.362;12.152;2023-02-28T08:18:50;1.00;;;0.80;;
19301;SDS011;9785;59.362;12.152;2023-02-28T08:21:21;1.10;;;1.00;;
19301;SDS011;9785;59.362;12.152;2023-02-28T08:23:54;1.83;;;1.10;;
19301;SDS011;9785;59.362;12.152;2023-02-28T08:26:27;1.23;;;1.00;;
19301;SDS011;9785;59.362;12.152;2023-02-28T08:28:56;4.17;;;0.80;;
19301;SDS011;9785;59.362;12.152;2023-02-28T08:31:27;1.00;;;1.00;;
19301;SDS011;9785;59.362;12.152;2023-02-28T08:33:58;0.80;;;0.80;;
19301;SDS011;9785;59.362;12.152;2023-02-28T08:36:29;1.40;;;1.30;;
19301;SDS011;9785;59.362;12.152;2023-02-28T08:39:00;0.67;;;0.67;;
19301;SDS011;9785;59.362;12.152;2023-02-28T08:41:32;0.70;;;0.70;;
19301;SDS011;9785;59.362;12.152;2023-02-28T08:44:03;0.80;;;0.80;;
19301;SDS011;9785;59.362;12.152;2023-02-28T08:46:32;0.87;;;0.87;;
19301;SDS011;9785;59.362;12.152;2023-02-28T08:49:01;1.00;;;1.00;;
19301;SDS011;9785;59.362;12.152;2023-02-28T08:51:30;3.07;;;0.80;;
19301;SDS011;9785;59.362;12.152;2023-02-28T08:53:59;1.00;;;0.90;;
19301;SDS011;9785;59.362;12.152;2023-02-28T08:56:31;0.93;;;0.87;;
19301;SDS011;9785;59.362;12.152;2023-02-28T08:59:02;1.10;;;1.07;;
19301;SDS011;9785;59.362;12.152;2023-02-28T09:01:33;1.10;;;1.00;;
19301;SDS011;9785;59.362;12.152;2023-02-28T09:04:03;0.90;;;0.90;;
19301;SDS011;9785;59.362;12.152;2023-02-28T09:06:36;2.27;;;0.90;;
19301;SDS011;9785;59.362;12.152;2023-02-28T09:09:06;0.90;;;0.90;;
19301;SDS011;9785;59.362;12.152;2023-02-28T09:11:36;1.00;;;0.90;;
19301;SDS011;9785;59.362;12.152;2023-02-28T09:14:07;1.77;;;1.00;;
19301;SDS011;9785;59.362;12.152;2023-02-28T09:16:43;1.00;;;1.00;;
19301;SDS011;9785;59.362;12.152;2023-02-28T09:19:12;1.03;;;0.93;;
19301;SDS011;9785;59.362;12.152;2023-02-28T09:21:42;0.93;;;0.83;;
19301;SDS011;9785;59.362;12.152;2023-02-28T09:24:13;2.30;;;0.90;;
19301;SDS011;9785;59.362;12.152;2023-02-28T09:26:43;0.87;;;0.70;;
19301;SDS011;9785;59.362;12.152;2023-02-28T09:29:33;0.60;;;0.60;;
19301;SDS011;9785;59.362;12.152;2023-02-28T09:32:03;0.60;;;0.60;;
19301;SDS011;9785;59.362;12.152;2023-02-28T09:34:33;0.43;;;0.43;;
19301;SDS011;9785;59.362;12.152;2023-02-28T09:37:04;0.20;;;0.20;;
19301;SDS011;9785;59.362;12.152;2023-02-28T09:39:37;0.30;;;0.30;;
19301;SDS011;9785;59.362;12.152;2023-02-28T09:42:11;0.90;;;0.30;;
19301;SDS011;9785;59.362;12.152;2023-02-28T09:44:48;0.20;;;0.20;;
19301;SDS011;9785;59.362;12.152;2023-02-28T09:47:21;1.13;;;0.20;;
19301;SDS011;9785;59.362;12.152;2023-02-28T09:49:57;0.13;;;0.13;;
19301;SDS011;9785;59.362;12.152;2023-02-28T09:52:29;0.10;;;0.10;;
19301;SDS011;9785;59.362;12.152;2023-02-28T09:55:00;0.20;;;0.20;;
19301;SDS011;9785;59.362;12.152;2023-02-28T09:57:36;0.20;;;0.20;;
19301;SDS011;9785;59.362;12.152;2023-02-28T10:00:10;0.20;;;0.20;;
19301;SDS011;9785;59.362;12.152;2023-02-28T10:02:56;0.40;;;0.40;;
19301;SDS011;9785;59.362;12.152;2023-02-28T10:05:32;0.57;;;0.20;;
19301;SDS011;9785;59.362;12.152;2023-02-28T10:08:05;1.63;;;0.20;;
19301;SDS011;9785;59.362;12.152;2023-02-28T10:10:37;0.20;;;0.20;;
19301;SDS011;9785;59.362;12.152;2023-02-28T10:13:12;0.40;;;0.40;;
19301;SDS011;9785;59.362;12.152;2023-02-28T10:15:46;2.20;;;0.30;;
19301;SDS011;9785;59.362;12.152;2023-02-28T10:18:20;0.30;;;0.30;;
19301;SDS011;9785;59.362;12.152;2023-02-28T10:20:54;0.30;;;0.30;;
19301;SDS011;9785;59.362;12.152;2023-02-28T10:23:26;0.20;;;0.20;;
19301;SDS011;9785;59.362;12.152;2023-02-28T10:25:57;0.20;;;0.20;;
19301;SDS011;9785;59.362;12.152;2023-02-28T10:28:28;0.63;;;0.20;;
19301;SDS011;9785;59.362;12.152;2023-02-28T10:31:00;0.20;;;0.20;;
19301;SDS011;9785;59.362;12.152;2023-02-28T10:33:31;0.10;;;0.10;;
19301;SDS011;9785;59.362;12.152;2023-02-28T10:36:04;0.20;;;0.20;;
19301;SDS011;9785;59.362;12.152;2023-02-28T10:38:36;0.20;;;0.20;;
19301;SDS011;9785;59.362;12.152;2023-02-28T10:41:09;0.20;;;0.20;;
19301;SDS011;9785;59.362;12.152;2023-02-28T10:43:40;0.10;;;0.10;;
19301;SDS011;9785;59.362;12.152;2023-02-28T10:46:15;0.27;;;0.27;;
19301;SDS011;9785;59.362;12.152;2023-02-28T10:49:01;0.37;;;0.37;;
19301;SDS011;9785;59.362;12.152;2023-02-28T10:51:34;0.40;;;0.40;;
19301;SDS011;9785;59.362;12.152;2023-02-28T10:54:06;0.20;;;0.20;;
19301;SDS011;9785;59.362;12.152;2023-02-28T10:56:43;0.20;;;0.20;;
19301;SDS011;9785;59.362;12.152;2023-02-28T10:59:28;0.17;;;0.17;;
19301;SDS011;9785;59.362;12.152;2023-02-28T11:02:07;2.33;;;0.10;;
19301;SDS011;9785;59.362;12.152;2023-02-28T11:04:55;0.30;;;0.20;;
19301;SDS011;9785;59.362;12.152;2023-02-28T11:07:26;0.20;;;0.10;;
19301;SDS011;9785;59.362;12.152;2023-02-28T11:10:06;0.20;;;0.20;;
19301;SDS011;9785;59.362;12.152;2023-02-28T11:12:38;0.20;;;0.20;;
19301;SDS011;9785;59.362;12.152;2023-02-28T11:15:21;1.20;;;0.20;;
19301;SDS011;9785;59.362;12.152;2023-02-28T11:17:54;0.17;;;0.10;;
19301;SDS011;9785;59.362;12.152;2023-02-28T11:20:26;0.20;;;0.20;;
19301;SDS011;9785;59.362;12.152;2023-02-28T11:22:56;0.20;;;0.10;;
19301;SDS011;9785;59.362;12.152;2023-02-28T11:25:26;0.30;;;0.20;;
19301;SDS011;9785;59.362;12.152;2023-02-28T11:27:57;0.10;;;0.10;;
19301;SDS011;9785;59.362;12.152;2023-02-28T11:30:29;0.20;;;0.20;;
19301;SDS011;9785;59.362;12.152;2023-02-28T11:33:13;0.10;;;0.10;;
19301;SDS011;9785;59.362;12.152;2023-02-28T11:35:47;0.37;;;0.23;;
19301;SDS011;9785;59.362;12.152;2023-02-28T11:38:18;0.10;;;0.10;;
19301;SDS011;9785;59.362;12.152;2023-02-28T11:40:49;0.10;;;0.10;;
19301;SDS011;9785;59.362;12.152;2023-02-28T11:43:24;0.10;;;0.10;;
19301;SDS011;9785;59.362;12.152;2023-02-28T11:46:03;1.23;;;0.10;;
19301;SDS011;9785;59.362;12.152;2023-02-28T11:48:39;0.10;;;0.10;;
19301;SDS011;9785;59.362;12.152;2023-02-28T11:51:14;0.77;;;0.10;;
19301;SDS011;9785;59.362;12.152;2023-02-28T11:56:30;0.30;;;0.20;;
19301;SDS011;9785;59.362;12.152;2023-02-28T11:59:03;0.20;;;0.10;;
19301;SDS011;9785;59.362;12.152;2023-02-28T12:01:49;0.00;;;0.00;;
19301;SDS011;9785;59.362;12.152;2023-02-28T12:04:30;0.03;;;0.03;;
19301;SDS011;9785;59.362;12.152;2023-02-28T12:07:03;0.10;;;0.10;;
19301;SDS011;9785;59.362;12.152;2023-02-28T12:09:40;0.10;;;0.10;;
19301;SDS011;9785;59.362;12.152;2023-02-28T12:12:16;0.20;;;0.17;;
19301;SDS011;9785;59.362;12.152;2023-02-28T12:14:50;0.10;;;0.10;;
19301;SDS011;9785;59.362;12.152;2023-02-28T12:17:32;0.30;;;0.20;;
19301;SDS011;9785;59.362;12.152;2023-02-28T12:20:12;0.03;;;0.03;;
19301;SDS011;9785;59.362;12.152;2023-02-28T12:22:46;1.03;;;0.17;;
19301;SDS011;9785;59.362;12.152;2023-02-28T12:25:22;0.10;;;0.10;;
19301;SDS011;9785;59.362;12.152;2023-02-28T12:27:53;0.20;;;0.20;;
19301;SDS011;9785;59.362;12.152;2023-02-28T12:30:26;0.10;;;0.10;;
19301;SDS011;9785;59.362;12.152;2023-02-28T12:32:56;0.10;;;0.10;;
19301;SDS011;9785;59.362;12.152;2023-02-28T12:35:31;0.13;;;0.13;;
19301;SDS011;9785;59.362;12.152;2023-02-28T12:38:05;0.20;;;0.20;;
19301;SDS011;9785;59.362;12.152;2023-02-28T12:40:41;0.87;;;0.10;;
19301;SDS011;9785;59.362;12.152;2023-02-28T12:43:13;1.07;;;0.00;;
19301;SDS011;9785;59.362;12.152;2023-02-28T12:45:46;0.10;;;0.10;;
19301;SDS011;9785;59.362;12.152;2023-02-28T12:48:18;2.43;;;0.10;;
19301;SDS011;9785;59.362;12.152;2023-02-28T12:50:52;0.00;;;0.00;;
19301;SDS011;9785;59.362;12.152;2023-02-28T12:53:23;0.20;;;0.20;;
19301;SDS011;9785;59.362;12.152;2023-02-28T12:55:58;0.10;;;0.10;;
19301;SDS011;9785;59.362;12.152;2023-02-28T12:58:32;0.30;;;0.00;;
19301;SDS011;9785;59.362;12.152;2023-02-28T13:01:21;0.47;;;0.10;;
19301;SDS011;9785;59.362;12.152;2023-02-28T13:06:52;0.10;;;0.10;;
19301;SDS011;9785;59.362;12.152;2023-02-28T13:09:27;0.90;;;0.10;;
19301;SDS011;9785;59.362;12.152;2023-02-28T13:11:59;0.00;;;0.00;;
19301;SDS011;9785;59.362;12.152;2023-02-28T13:14:35;0.17;;;0.10;;
19301;SDS011;9785;59.362;12.152;2023-02-28T13:17:10;0.07;;;0.07;;
19301;SDS011;9785;59.362;12.152;2023-02-28T13:19:40;0.03;;;0.03;;
19301;SDS011;9785;59.362;12.152;2023-02-28T13:22:19;0.00;;;0.00;;
19301;SDS011;9785;59.362;12.152;2023-02-28T13:24:48;0.10;;;0.10;;
19301;SDS011;9785;59.362;12.152;2023-02-28T13:27:22;0.07;;;0.07;;
19301;SDS011;9785;59.362;12.152;2023-02-28T13:29:52;0.27;;;0.23;;
19301;SDS011;9785;59.362;12.152;2023-02-28T13:32:29;0.10;;;0.10;;
19301;SDS011;9785;59.362;12.152;2023-02-28T13:35:15;0.67;;;0.20;;
19301;SDS011;9785;59.362;12.152;2023-02-28T13:44:01;0.00;;;0.00;;
19301;SDS011;9785;59.362;12.152;2023-02-28T13:46:31;0.10;;;0.10;;
19301;SDS011;9785;59.362;12.152;2023-02-28T13:51:45;0.10;;;0.10;;
19301;SDS011;9785;59.362;12.152;2023-02-28T13:54:18;0.10;;;0.10;;
19301;SDS011;9785;59.362;12.152;2023-02-28T13:56:54;0.97;;;0.20;;
19301;SDS011;9785;59.362;12.152;2023-02-28T13:59:33;0.10;;;0.10;;
19301;SDS011;9785;59.362;12.152;2023-02-28T14:02:13;0.27;;;0.20;;
19301;SDS011;9785;59.362;12.152;2023-02-28T14:04:58;0.10;;;0.10;;
19301;SDS011;9785;59.362;12.152;2023-02-28T14:07:30;0.10;;;0.10;;
19301;SDS011;9785;59.362;12.152;2023-02-28T14:10:04;0.10;;;0.10;;
19301;SDS011;9785;59.362;12.152;2023-02-28T14:15:28;0.10;;;0.10;;
19301;SDS011;9785;59.362;12.152;2023-02-28T14:18:00;0.10;;;0.10;;
19301;SDS011;9785;59.362;12.152;2023-02-28T14:20:31;0.07;;;0.07;;
19301;SDS011;9785;59.362;12.152;2023-02-28T14:23:03;0.20;;;0.20;;
19301;SDS011;9785;59.362;12.152;2023-02-28T14:25:36;1.07;;;0.10;;
19301;SDS011;9785;59.362;12.152;2023-02-28T14:28:11;0.20;;;0.20;;
19301;SDS011;9785;59.362;12.152;2023-02-28T14:30:48;0.20;;;0.20;;
19301;SDS011;9785;59.362;12.152;2023-02-28T14:33:25;0.20;;;0.20;;
19301;SDS011;9785;59.362;12.152;2023-02-28T14:36:01;1.60;;;0.20;;
19301;SDS011;9785;59.362;12.152;2023-02-28T14:38:33;0.70;;;0.40;;
19301;SDS011;9785;59.362;12.152;2023-02-28T14:41:06;0.30;;;0.17;;
19301;SDS011;9785;59.362;12.152;2023-02-28T14:43:47;0.87;;;0.40;;
19301;SDS011;9785;59.362;12.152;2023-02-28T14:46:18;1.53;;;0.20;;
19301;SDS011;9785;59.362;12.152;2023-02-28T14:48:50;0.30;;;0.30;;
19301;SDS011;9785;59.362;12.152;2023-02-28T14:51:22;0.33;;;0.30;;
19301;SDS011;9785;59.362;12.152;2023-02-28T14:53:53;0.20;;;0.20;;
19301;SDS011;9785;59.362;12.152;2023-02-28T14:56:26;0.20;;;0.20;;
19301;SDS011;9785;59.362;12.152;2023-02-28T14:58:57;0.30;;;0.30;;
19301;SDS011;9785;59.362;12.152;2023-02-28T15:01:29;0.83;;;0.33;;
19301;SDS011;9785;59.362;12.152;2023-02-28T15:04:00;2.73;;;0.20;;
19301;SDS011;9785;59.362;12.152;2023-02-28T15:06:32;0.47;;;0.23;;
19301;SDS011;9785;59.362;12.152;2023-02-28T15:09:10;0.53;;;0.20;;
19301;SDS011;9785;59.362;12.152;2023-02-28T15:11:44;0.20;;;0.20;;
19301;SDS011;9785;59.362;12.152;2023-02-28T15:14:15;0.20;;;0.10;;
19301;SDS011;9785;59.362;12.152;2023-02-28T15:16:51;0.30;;;0.10;;
19301;SDS011;9785;59.362;12.152;2023-02-28T15:19:22;0.10;;;0.10;;
19301;SDS011;9785;59.362;12.152;2023-02-28T15:21:58;0.17;;;0.17;;
19301;SDS011;9785;59.362;12.152;2023-02-28T15:24:32;0.17;;;0.17;;
19301;SDS011;9785;59.362;12.152;2023-02-28T15:27:07;0.20;;;0.20;;
19301;SDS011;9785;59.362;12.152;2023-02-28T15:29:41;0.10;;;0.10;;
19301;SDS011;9785;59.362;12.152;2023-02-28T15:32:23;0.20;;;0.20;;
19301;SDS011;9785;59.362;12.152;2023-02-28T15:34:52;0.67;;;0.10;;
19301;SDS011;9785;59.362;12.152;2023-02-28T15:37:26;1.33;;;0.20;;
19301;SDS011;9785;59.362;12.152;2023-02-28T15:39:57;1.03;;;0.43;;
19301;SDS011;9785;59.362;12.152;2023-02-28T15:42:29;0.23;;;0.23;;
19301;SDS011;9785;59.362;12.152;2023-02-28T15:44:58;3.20;;;0.30;;